Time;durP1;ratioP1;P1;durP2;ratioP2;P2;SDS_P1;SDS_P2;PMS_P1;PMS_P2;Temp;Humidity;BMP_temperature;BMP_pressure;BME280_temperature;BME280_humidity;BME280_pressure;Samples;Min_cycle;Max_cycle;Signal;HPM_P1;HPM_P2
2021/04/29 00:01:19;;;;;;;9.33;6.30;;;;;;;6.96;100.00;100884.52;1877044;76;26271;-76
2021/04/29 00:03:49;;;;;;;10.53;7.17;;;;;;;6.92;100.00;100891.66;1877114;75;26232;-75
2021/04/29 00:06:19;;;;;;;6.63;5.93;;;;;;;6.96;100.00;100896.94;1877034;76;26275;-75
2021/04/29 00:08:49;;;;;;;9.73;6.40;;;;;;;7.06;100.00;100888.73;1877034;76;26711;-75
2021/04/29 00:11:19;;;;;;;6.67;5.80;;;;;;;7.01;100.00;100890.09;1877091;76;26237;-76
2021/04/29 00:13:49;;;;;;;7.63;5.53;;;;;;;7.02;100.00;100882.62;1877124;76;26756;-75
2021/04/29 00:16:18;;;;;;;8.63;5.77;;;;;;;7.04;100.00;100886.80;1877169;76;26245;-75
2021/04/29 00:18:48;;;;;;;8.73;5.63;;;;;;;6.96;100.00;100880.38;1877195;76;26241;-75
2021/04/29 00:21:18;;;;;;;7.80;5.60;;;;;;;6.97;100.00;100882.05;1877251;76;26664;-75
2021/04/29 00:23:48;;;;;;;10.07;5.67;;;;;;;7.02;100.00;100879.86;1877256;76;26419;-75
2021/04/29 00:26:18;;;;;;;8.37;5.70;;;;;;;7.02;100.00;100883.45;1877034;75;26739;-76
2021/04/29 00:28:48;;;;;;;9.27;5.73;;;;;;;7.09;100.00;100883.26;1877168;76;26318;-76
2021/04/29 00:31:18;;;;;;;11.30;6.73;;;;;;;7.09;100.00;100888.78;1877226;76;26244;-76
2021/04/29 00:33:48;;;;;;;6.17;5.23;;;;;;;7.07;100.00;100882.67;1877147;76;26193;-77
2021/04/29 00:36:18;;;;;;;6.83;5.07;;;;;;;7.10;100.00;100880.22;1877112;76;26322;-76
2021/04/29 00:38:48;;;;;;;9.60;5.20;;;;;;;7.03;100.00;100878.77;1877164;76;26762;-76
2021/04/29 00:41:18;;;;;;;6.97;5.37;;;;;;;7.11;100.00;100879.67;1877249;76;26401;-76
2021/04/29 00:43:48;;;;;;;10.87;5.77;;;;;;;7.13;100.00;100876.11;1877323;76;26318;-76
2021/04/29 00:46:17;;;;;;;10.13;5.93;;;;;;;7.13;100.00;100874.19;1877121;76;26212;-76
2021/04/29 00:48:47;;;;;;;8.47;5.57;;;;;;;7.09;100.00;100868.06;1877194;76;26193;-76
2021/04/29 00:51:19;;;;;;;9.43;6.07;;;;;;;7.19;100.00;100873.12;1877325;76;26376;-77
2021/04/29 00:53:50;;;;;;;8.90;5.63;;;;;;;7.14;100.00;100868.95;1877252;76;26201;-76
2021/04/29 00:56:22;;;;;;;10.63;5.47;;;;;;;7.10;100.00;100868.36;1877253;76;26279;-76
2021/04/29 00:58:53;;;;;;;10.23;5.53;;;;;;;7.22;100.00;100869.02;1877261;76;26286;-76
2021/04/29 01:01:24;;;;;;;10.40;5.20;;;;;;;7.26;100.00;100871.55;1877201;76;26636;-76
2021/04/29 01:03:58;;;;;;;8.77;4.87;;;;;;;7.32;100.00;100876.00;1877138;75;26388;-77
2021/04/29 01:06:36;;;;;;;10.43;5.60;;;;;;;7.46;100.00;100876.39;1877230;76;26307;-78
2021/04/29 01:09:09;;;;;;;8.17;5.07;;;;;;;7.44;100.00;100867.55;1877196;76;26662;-77
2021/04/29 01:11:41;;;;;;;6.77;4.60;;;;;;;7.52;100.00;100866.52;1877203;76;26209;-77
2021/04/29 01:14:12;;;;;;;8.20;4.50;;;;;;;7.46;100.00;100866.17;1877215;76;26209;-76
2021/04/29 01:16:42;;;;;;;7.33;4.73;;;;;;;7.54;100.00;100864.30;1877154;76;26205;-76
2021/04/29 01:19:14;;;;;;;7.20;5.30;;;;;;;7.51;100.00;100864.00;1877212;76;26197;-76
2021/04/29 01:21:46;;;;;;;9.23;5.07;;;;;;;7.45;100.00;100868.65;1877161;76;26209;-76
2021/04/29 01:24:19;;;;;;;5.80;4.60;;;;;;;7.48;100.00;100859.02;1877164;76;26264;-77
2021/04/29 01:26:52;;;;;;;8.30;4.93;;;;;;;7.50;100.00;100870.63;1877105;75;26335;-77
2021/04/29 01:29:27;;;;;;;8.87;4.60;;;;;;;7.52;100.00;100866.52;1877150;76;26648;-76
2021/04/29 01:31:59;;;;;;;7.03;4.47;;;;;;;7.39;100.00;100866.12;1877155;76;26263;-78
2021/04/29 01:34:32;;;;;;;8.20;4.20;;;;;;;7.36;100.00;100861.94;1877223;76;26248;-77
2021/04/29 01:37:02;;;;;;;6.60;4.23;;;;;;;7.34;100.00;100868.30;1877118;76;26275;-77
2021/04/29 01:39:32;;;;;;;5.17;4.30;;;;;;;7.32;100.00;100865.78;1877086;76;26209;-76
2021/04/29 01:42:02;;;;;;;7.63;4.67;;;;;;;7.31;100.00;100862.76;1877112;76;26373;-77
2021/04/29 01:44:33;;;;;;;8.20;4.40;;;;;;;7.42;100.00;100865.04;1877204;76;26205;-77
2021/04/29 01:47:05;;;;;;;8.40;4.47;;;;;;;7.36;100.00;100872.19;1877156;76;26652;-77
2021/04/29 01:49:35;;;;;;;5.90;4.27;;;;;;;7.36;100.00;100873.56;1877125;76;26197;-76
2021/04/29 01:52:09;;;;;;;6.93;4.30;;;;;;;7.31;100.00;100871.05;1877128;76;26213;-76
2021/04/29 01:54:38;;;;;;;5.23;3.50;;;;;;;7.37;100.00;100876.59;1877039;76;26256;-76
2021/04/29 01:57:08;;;;;;;7.47;4.40;;;;;;;7.37;100.00;100873.28;1877108;76;26641;-76
2021/04/29 01:59:38;;;;;;;6.87;4.40;;;;;;;7.44;100.00;100873.91;1877202;76;26247;-76
2021/04/29 02:02:08;;;;;;;5.87;4.07;;;;;;;7.38;100.00;100869.97;1877054;75;26323;-76
2021/04/29 02:04:38;;;;;;;9.60;4.70;;;;;;;7.36;100.00;100879.09;1877089;76;26237;-77
2021/04/29 02:07:08;;;;;;;6.33;4.20;;;;;;;7.31;100.00;100882.64;1877261;76;26217;-77
2021/04/29 02:09:37;;;;;;;8.03;4.43;;;;;;;7.33;100.00;100879.05;1877100;76;26201;-77
2021/04/29 02:12:11;;;;;;;8.13;4.83;;;;;;;7.31;100.00;100879.34;1877194;76;26271;-77
2021/04/29 02:14:44;;;;;;;7.53;4.07;;;;;;;7.18;100.00;100874.78;1877199;76;26197;-76
2021/04/29 02:17:17;;;;;;;7.67;4.20;;;;;;;7.26;100.00;100869.61;1877163;76;26197;-76
2021/04/29 02:19:48;;;;;;;5.63;4.03;;;;;;;7.31;100.00;100874.36;1876340;75;26290;-78
2021/04/29 02:22:21;;;;;;;9.33;3.83;;;;;;;7.29;100.00;100875.98;1877174;76;26765;-76
2021/04/29 02:24:53;;;;;;;8.50;4.00;;;;;;;7.27;100.00;100880.92;1877086;76;26275;-77
2021/04/29 02:27:24;;;;;;;5.77;3.40;;;;;;;7.27;100.00;100880.92;1877021;75;26261;-76
2021/04/29 02:29:55;;;;;;;9.03;3.70;;;;;;;7.25;100.00;100873.47;1877094;76;26213;-78
2021/04/29 02:32:24;;;;;;;6.67;3.93;;;;;;;7.24;100.00;100884.22;1877163;76;26263;-78
2021/04/29 02:34:54;;;;;;;6.43;3.30;;;;;;;7.23;100.00;100884.51;1877067;76;26194;-78
2021/04/29 02:37:24;;;;;;;8.27;3.73;;;;;;;7.23;100.00;100882.55;1877177;76;26213;-78
2021/04/29 02:39:54;;;;;;;5.43;3.07;;;;;;;7.17;100.00;100885.55;1877073;76;26687;-78
2021/04/29 02:42:24;;;;;;;8.67;3.83;;;;;;;7.14;100.00;100886.91;1877147;76;26640;-78
2021/04/29 02:44:55;;;;;;;7.07;3.30;;;;;;;7.16;100.00;100893.53;1877102;76;26193;-78
2021/04/29 02:47:24;;;;;;;5.70;3.33;;;;;;;7.08;100.00;100888.48;1877056;76;26364;-78
2021/04/29 02:49:54;;;;;;;6.57;3.80;;;;;;;7.08;100.00;100893.47;1877092;76;26345;-78
2021/04/29 02:52:24;;;;;;;6.33;3.30;;;;;;;7.10;100.00;100893.22;1877058;76;26270;-78
2021/04/29 02:54:55;;;;;;;6.13;3.97;;;;;;;7.07;100.00;100893.17;1877081;76;26673;-78
2021/04/29 02:57:25;;;;;;;8.77;3.40;;;;;;;7.00;100.00;100891.72;1877051;76;26202;-78
2021/04/29 02:59:55;;;;;;;6.93;3.20;;;;;;;6.97;100.00;100894.47;1877065;76;26197;-78
2021/04/29 03:02:25;;;;;;;7.10;3.93;;;;;;;6.97;100.00;100890.33;1877105;75;26233;-77
2021/04/29 03:04:54;;;;;;;8.63;3.53;;;;;;;6.99;100.00;100893.65;1877173;76;26251;-77
2021/04/29 03:07:25;;;;;;;7.63;3.20;;;;;;;6.96;100.00;100891.96;1877088;76;26656;-77
2021/04/29 03:09:55;;;;;;;7.77;3.80;;;;;;;6.98;100.00;100893.89;1877164;76;26197;-77
2021/04/29 03:12:25;;;;;;;8.40;3.80;;;;;;;6.98;100.00;100889.75;1877085;76;26190;-78
2021/04/29 03:14:55;;;;;;;7.60;3.30;;;;;;;6.96;100.00;100888.66;1877118;76;26190;-78
2021/04/29 03:17:24;;;;;;;7.13;3.70;;;;;;;6.92;100.00;100890.27;1877117;76;26641;-78
2021/04/29 03:19:55;;;;;;;5.00;3.30;;;;;;;6.95;100.00;100894.43;1877154;76;26641;-77
2021/04/29 03:22:25;;;;;;;4.27;3.47;;;;;;;6.95;100.00;100892.50;1877066;76;26263;-78
2021/04/29 03:24:55;;;;;;;7.10;3.50;;;;;;;6.91;100.00;100885.84;1877150;76;26217;-77
2021/04/29 03:27:25;;;;;;;5.60;3.47;;;;;;;6.90;100.00;100889.69;1877042;76;26283;-77
2021/04/29 03:29:56;;;;;;;8.77;3.80;;;;;;;6.89;100.00;100892.15;1877076;76;26711;-78
2021/04/29 03:32:28;;;;;;;5.60;3.37;;;;;;;6.91;100.00;100893.28;1877063;76;26722;-78
2021/04/29 03:34:58;;;;;;;6.67;3.43;;;;;;;6.84;100.00;100892.13;1877130;76;26344;-77
2021/04/29 03:37:28;;;;;;;4.20;2.90;;;;;;;6.84;100.00;100904.00;1877115;76;26727;-77
2021/04/29 03:39:58;;;;;;;8.03;3.73;;;;;;;6.84;100.00;100899.86;1877041;76;26213;-77
2021/04/29 03:42:29;;;;;;;7.13;3.47;;;;;;;6.80;100.00;100905.58;1877021;76;26645;-77
2021/04/29 03:44:58;;;;;;;6.87;3.27;;;;;;;6.73;100.00;100906.34;1877153;76;26660;-77
2021/04/29 03:47:28;;;;;;;6.40;3.70;;;;;;;6.67;100.00;100907.39;1877210;76;26233;-76
2021/04/29 03:50:15;;;;;;;7.17;3.47;;;;;;;6.65;100.00;100908.19;1788586;80;33273;-76
2021/04/29 03:52:45;;;;;;;7.97;3.13;;;;;;;6.68;100.00;100910.42;1789115;80;26199;-77
2021/04/29 03:55:15;;;;;;;6.63;3.47;;;;;;;6.69;100.00;100914.86;1788995;80;26285;-77
2021/04/29 03:57:45;;;;;;;6.60;3.53;;;;;;;6.70;100.00;100913.77;1789010;80;26782;-76
2021/04/29 04:00:16;;;;;;;5.67;3.23;;;;;;;6.65;100.00;100912.33;1775893;79;932673;-76
2021/04/29 04:02:46;;;;;;;8.27;3.90;;;;;;;6.54;100.00;100918.82;1752121;82;26348;-77
2021/04/29 04:05:16;;;;;;;5.37;3.30;;;;;;;6.45;100.00;100916.77;1752040;82;26245;-76
2021/04/29 04:07:46;;;;;;;6.17;3.20;;;;;;;6.43;100.00;100921.69;1752099;82;26712;-76
2021/04/29 04:10:16;;;;;;;4.20;2.93;;;;;;;6.30;100.00;100920.98;1752088;82;26775;-76
2021/04/29 04:12:46;;;;;;;5.93;3.63;;;;;;;6.28;100.00;100919.58;1752097;82;26261;-77
2021/04/29 04:15:16;;;;;;;4.47;3.43;;;;;;;6.23;100.00;100930.00;1752115;82;26740;-77
2021/04/29 04:17:46;;;;;;;5.67;3.30;;;;;;;6.19;100.00;100931.59;1752078;82;26748;-77
2021/04/29 04:20:17;;;;;;;8.50;3.20;;;;;;;6.25;100.00;100935.23;1752057;82;26258;-77
2021/04/29 04:22:48;;;;;;;4.40;2.93;;;;;;;6.18;100.00;100940.11;1834614;78;26624;-77
2021/04/29 04:25:18;;;;;;;7.33;3.73;;;;;;;6.21;100.00;100941.81;1836525;78;26212;-77
2021/04/29 04:27:48;;;;;;;4.57;3.20;;;;;;;6.08;100.00;100944.93;1836358;78;26295;-77
2021/04/29 04:30:18;;;;;;;6.77;3.70;;;;;;;6.05;100.00;100950.12;1836378;77;26268;-77
2021/04/29 04:32:48;;;;;;;7.17;3.50;;;;;;;5.94;100.00;100954.66;1836385;78;26221;-78
2021/04/29 04:35:18;;;;;;;4.43;3.43;;;;;;;5.77;100.00;100959.31;1836427;78;26282;-78
2021/04/29 04:37:48;;;;;;;5.17;3.30;;;;;;;5.78;100.00;100961.80;1836494;78;26653;-76
2021/04/29 04:40:18;;;;;;;6.53;3.73;;;;;;;5.76;100.00;100954.88;1836372;78;26204;-76
2021/04/29 04:42:47;;;;;;;5.23;3.50;;;;;;;5.70;100.00;100960.84;1836333;78;26217;-76
2021/04/29 04:45:17;;;;;;;5.83;3.83;;;;;;;5.61;100.00;100960.13;1836570;78;26213;-76
2021/04/29 04:47:47;;;;;;;5.50;3.43;;;;;;;5.58;100.00;100963.39;1836361;78;26228;-76
2021/04/29 04:50:17;;;;;;;6.10;4.07;;;;;;;5.49;100.00;100965.18;1836650;78;26212;-77
2021/04/29 04:52:46;;;;;;;6.57;3.47;;;;;;;5.55;100.00;100970.25;1836586;78;26213;-76
2021/04/29 04:55:16;;;;;;;5.07;3.87;;;;;;;5.38;100.00;100979.03;1836540;78;26217;-77
2021/04/29 04:57:46;;;;;;;5.07;3.70;;;;;;;5.48;100.00;100977.28;1836456;78;26224;-76
2021/04/29 05:00:19;;;;;;;9.53;4.00;;;;;;;5.43;100.00;100978.56;1836494;78;26663;-77
2021/04/29 05:02:48;;;;;;;5.10;3.47;;;;;;;5.37;100.00;100977.35;1836447;78;26718;-76
2021/04/29 05:05:18;;;;;;;8.43;4.20;;;;;;;5.45;100.00;100975.56;1836505;78;26200;-77
2021/04/29 05:07:48;;;;;;;6.50;4.00;;;;;;;5.56;100.00;100976.05;1836572;78;26208;-77
2021/04/29 05:10:18;;;;;;;4.87;3.70;;;;;;;5.26;100.00;100974.94;1836421;78;26356;-77
2021/04/29 05:12:48;;;;;;;7.83;3.63;;;;;;;5.11;100.00;100976.05;1836517;78;26208;-77
2021/04/29 05:15:18;;;;;;;6.60;3.87;;;;;;;5.17;100.00;100977.83;1836409;78;26646;-77
2021/04/29 05:17:49;;;;;;;6.27;4.17;;;;;;;5.33;100.00;100979.77;1836483;78;26205;-77
2021/04/29 05:20:19;;;;;;;7.30;4.23;;;;;;;5.42;100.00;100981.05;1836469;78;26189;-77
2021/04/29 05:22:50;;;;;;;7.40;4.47;;;;;;;5.49;100.00;100987.22;1836503;78;26212;-77
2021/04/29 05:25:22;;;;;;;8.57;4.37;;;;;;;5.60;100.00;100981.90;1836568;78;26220;-78
2021/04/29 05:27:52;;;;;;;7.57;4.87;;;;;;;5.56;100.00;100987.08;1836472;78;26217;-77
2021/04/29 05:30:24;;;;;;;7.40;4.10;;;;;;;5.57;100.00;100994.77;1836483;77;26268;-78
2021/04/29 05:32:53;;;;;;;8.40;4.30;;;;;;;5.54;100.00;100993.36;1836558;78;26275;-78
2021/04/29 05:35:23;;;;;;;6.33;4.43;;;;;;;5.57;100.00;100996.99;1836519;78;26290;-78
2021/04/29 05:37:53;;;;;;;9.10;5.30;;;;;;;5.63;100.00;101004.81;1836404;78;26212;-77
2021/04/29 05:40:23;;;;;;;6.20;4.47;;;;;;;5.73;100.00;100996.73;1836421;78;26758;-76
2021/04/29 05:42:53;;;;;;;6.60;4.27;;;;;;;5.64;100.00;100999.60;1836354;78;26212;-76
2021/04/29 05:45:22;;;;;;;6.30;4.57;;;;;;;5.67;100.00;101008.20;1836376;78;26708;-77
2021/04/29 05:47:52;;;;;;;5.17;4.40;;;;;;;5.73;100.00;101014.11;1836460;78;26295;-77
2021/04/29 05:50:22;;;;;;;6.97;5.00;;;;;;;5.73;100.00;101010.52;1836396;78;26228;-78
2021/04/29 05:52:52;;;;;;;8.47;4.43;;;;;;;5.76;100.00;101013.60;1836466;78;26216;-77
2021/04/29 05:55:22;;;;;;;7.07;4.73;;;;;;;5.75;100.00;101008.33;1836487;78;26216;-77
2021/04/29 05:57:54;;;;;;;7.53;5.40;;;;;;;5.81;100.00;101012.85;1836366;78;26216;-77
2021/04/29 06:00:24;;;;;;;4.80;4.33;;;;;;;5.85;100.00;101015.40;1836375;78;26290;-76
2021/04/29 06:02:55;;;;;;;4.57;4.17;;;;;;;5.90;100.00;101023.22;1836350;78;26566;-77
2021/04/29 06:05:25;;;;;;;8.17;4.87;;;;;;;6.02;100.00;101020.41;1836350;78;26220;-79
2021/04/29 06:07:59;;;;;;;5.57;4.97;;;;;;;5.97;100.00;101020.31;1836305;78;26221;-77
2021/04/29 06:10:31;;;;;;;5.43;4.47;;;;;;;6.00;100.00;101021.72;1836316;78;26217;-78
2021/04/29 06:13:01;;;;;;;6.23;4.30;;;;;;;6.09;100.00;101024.36;1836408;78;26390;-78
2021/04/29 06:15:31;;;;;;;6.43;4.97;;;;;;;6.10;100.00;101023.28;1836548;78;26289;-77
2021/04/29 06:18:01;;;;;;;7.63;4.93;;;;;;;6.15;100.00;101024.74;1836430;78;26300;-78
2021/04/29 06:20:31;;;;;;;7.60;5.07;;;;;;;6.17;100.00;101027.52;1836364;78;26225;-77
2021/04/29 06:23:01;;;;;;;7.10;5.10;;;;;;;6.23;100.00;101027.91;1836375;78;26217;-76
2021/04/29 06:25:30;;;;;;;9.20;5.33;;;;;;;6.21;100.00;101025.09;1836617;78;26286;-76
2021/04/29 06:28:01;;;;;;;10.00;5.10;;;;;;;6.26;100.00;101024.64;1836392;78;26283;-76
2021/04/29 06:30:30;;;;;;;7.67;4.93;;;;;;;6.31;100.00;101026.64;1836416;76;26731;-77
2021/04/29 06:33:00;;;;;;;8.70;4.90;;;;;;;6.38;100.00;101024.53;1836463;78;26668;-77
2021/04/29 06:35:30;;;;;;;7.87;5.33;;;;;;;6.45;100.00;101027.97;1836545;78;26271;-78
2021/04/29 06:38:00;;;;;;;6.40;5.47;;;;;;;6.46;100.00;101031.56;1836453;78;26287;-80
2021/04/29 06:40:30;;;;;;;6.47;4.77;;;;;;;6.54;100.00;101029.20;1836410;78;26652;-77
2021/04/29 06:42:59;;;;;;;8.73;4.80;;;;;;;6.58;100.00;101024.84;1836537;78;26210;-77
2021/04/29 06:45:29;;;;;;;7.43;5.13;;;;;;;6.63;100.00;101035.93;1836541;78;26624;-77
2021/04/29 06:47:59;;;;;;;8.97;5.73;;;;;;;6.71;100.00;101037.44;1836512;78;26215;-77
2021/04/29 06:50:29;;;;;;;6.87;5.57;;;;;;;6.70;100.00;101042.12;1836412;78;26213;-77
2021/04/29 06:52:59;;;;;;;5.30;4.80;;;;;;;6.80;100.00;101040.05;1836310;78;26217;-77
2021/04/29 06:55:29;;;;;;;6.00;4.80;;;;;;;6.87;100.00;101036.55;1836433;78;26209;-78
2021/04/29 06:57:58;;;;;;;7.10;5.70;;;;;;;6.95;100.00;101036.64;1836554;78;26201;-77
2021/04/29 07:00:28;;;;;;;6.37;4.93;;;;;;;7.07;100.00;101034.58;1836373;78;26216;-78
2021/04/29 07:02:59;;;;;;;5.73;5.03;;;;;;;7.06;100.00;101042.59;1836379;78;26415;-78
2021/04/29 07:05:29;;;;;;;6.60;5.00;;;;;;;7.08;100.00;101037.09;1836475;78;26213;-77
2021/04/29 07:07:59;;;;;;;7.57;5.10;;;;;;;7.22;100.00;101043.91;1836394;78;26733;-78
2021/04/29 07:10:29;;;;;;;7.07;5.03;;;;;;;7.36;100.00;101049.84;1836414;78;26300;-77
2021/04/29 07:12:58;;;;;;;6.20;5.60;;;;;;;7.27;100.00;101048.66;1836463;78;26212;-76
2021/04/29 07:15:28;;;;;;;7.97;5.03;;;;;;;7.47;100.00;101047.49;1836434;78;26285;-77
2021/04/29 07:17:59;;;;;;;5.07;4.57;;;;;;;7.58;100.00;101058.09;1836314;78;26639;-77
2021/04/29 07:20:30;;;;;;;6.70;5.20;;;;;;;7.66;100.00;101055.69;1836388;78;26224;-77
2021/04/29 07:22:59;;;;;;;6.07;5.17;;;;;;;7.74;100.00;101056.59;1836500;78;26644;-76
2021/04/29 07:25:29;;;;;;;5.77;5.03;;;;;;;7.75;100.00;101054.67;1836590;78;26188;-76
2021/04/29 07:28:00;;;;;;;5.87;5.03;;;;;;;7.94;100.00;101060.13;1836511;78;26208;-77
2021/04/29 07:30:30;;;;;;;6.53;5.93;;;;;;;7.98;100.00;101061.27;1836394;78;26660;-79
2021/04/29 07:33:00;;;;;;;6.50;5.80;;;;;;;8.06;100.00;101061.33;1836294;77;26681;-76
2021/04/29 07:35:30;;;;;;;5.50;4.90;;;;;;;8.18;100.00;101064.20;1836422;78;26672;-79
2021/04/29 07:38:01;;;;;;;6.70;5.13;;;;;;;8.33;100.00;101062.15;1836465;78;26738;-79
2021/04/29 07:40:33;;;;;;;5.60;4.97;;;;;;;8.55;100.00;101066.19;1836494;78;26209;-76
2021/04/29 07:43:03;;;;;;;6.93;5.30;;;;;;;8.51;100.00;101063.67;1836538;78;26286;-78
2021/04/29 07:45:33;;;;;;;6.20;5.17;;;;;;;8.68;100.00;101067.91;1836503;78;26290;-76
2021/04/29 07:48:04;;;;;;;6.97;5.87;;;;;;;8.44;100.00;101063.87;1836691;78;26302;-75
2021/04/29 07:50:33;;;;;;;7.60;6.00;;;;;;;8.61;100.00;101071.47;1836573;78;26232;-76
2021/04/29 07:53:04;;;;;;;7.80;5.70;;;;;;;9.05;100.00;101062.31;1836605;78;26212;-76
2021/04/29 07:55:34;;;;;;;6.10;4.93;;;;;;;9.11;100.00;101065.38;1836379;78;26213;-76
2021/04/29 07:58:04;;;;;;;6.10;5.17;;;;;;;9.01;100.00;101065.89;1836510;78;26200;-76
2021/04/29 08:00:34;;;;;;;6.37;5.17;;;;;;;9.19;100.00;101057.66;1836464;78;26217;-79
2021/04/29 08:03:05;;;;;;;6.43;5.57;;;;;;;9.48;100.00;101064.41;1836362;78;26686;-76
2021/04/29 08:05:35;;;;;;;7.00;4.97;;;;;;;9.65;100.00;101061.41;1836600;78;26266;-77
2021/04/29 08:08:06;;;;;;;5.60;4.77;;;;;;;9.73;100.00;101058.92;1836429;78;26766;-76
2021/04/29 08:10:39;;;;;;;6.87;4.87;;;;;;;10.00;100.00;101062.86;1836582;78;26264;-76
2021/04/29 08:13:08;;;;;;;6.27;5.40;;;;;;;9.96;100.00;101055.64;1836450;77;26659;-77
2021/04/29 08:15:38;;;;;;;5.40;4.90;;;;;;;9.64;100.00;101061.12;1836611;78;26217;-77
2021/04/29 08:18:08;;;;;;;5.33;4.83;;;;;;;9.79;100.00;101068.10;1836529;78;26217;-77
2021/04/29 08:20:40;;;;;;;5.40;4.90;;;;;;;9.61;100.00;101066.67;1836497;78;26290;-77
2021/04/29 08:23:10;;;;;;;6.30;5.07;;;;;;;9.68;100.00;101065.01;1836564;78;26293;-77
2021/04/29 08:25:39;;;;;;;7.43;5.33;;;;;;;9.62;100.00;101064.19;1836451;78;26213;-77
2021/04/29 08:28:09;;;;;;;6.07;5.47;;;;;;;9.58;100.00;101065.26;1836583;78;26208;-77
2021/04/29 08:30:39;;;;;;;5.57;4.90;;;;;;;9.91;100.00;101068.12;1836372;78;26730;-76
2021/04/29 08:33:10;;;;;;;5.30;4.80;;;;;;;10.10;100.00;101057.87;1836418;77;26338;-77
2021/04/29 08:35:40;;;;;;;7.57;4.57;;;;;;;10.19;100.00;101074.26;1836413;78;26620;-76
2021/04/29 08:38:10;;;;;;;6.00;4.87;;;;;;;10.09;100.00;101066.75;1836582;78;26224;-79
2021/04/29 08:40:39;;;;;;;6.60;5.10;;;;;;;10.15;100.00;101068.95;1836422;78;26695;-76
2021/04/29 08:43:09;;;;;;;7.03;4.67;;;;;;;10.19;100.00;101075.64;1836408;78;26738;-77
2021/04/29 08:45:44;;;;;;;5.87;5.20;;;;;;;10.05;100.00;101073.38;1836409;78;26205;-77
2021/04/29 08:48:11;;;;;;;8.77;5.60;;;;;;;10.03;100.00;101085.88;1835999;77;26298;-77
2021/04/29 08:50:41;;;;;;;5.07;4.67;;;;;;;10.30;100.00;101082.33;1836387;78;26690;-77
2021/04/29 08:53:11;;;;;;;5.93;4.90;;;;;;;10.14;100.00;101079.22;1836334;78;26220;-77
2021/04/29 08:55:41;;;;;;;5.70;4.80;;;;;;;10.23;100.00;101071.20;1836592;78;26345;-77
2021/04/29 08:58:12;;;;;;;5.17;4.63;;;;;;;10.49;100.00;101070.09;1836413;78;26278;-76
2021/04/29 09:00:42;;;;;;;5.70;5.10;;;;;;;10.44;100.00;101071.47;1836415;78;26224;-76
2021/04/29 09:03:11;;;;;;;5.73;5.03;;;;;;;11.04;100.00;101071.11;1836465;78;26244;-77
2021/04/29 09:05:46;;;;;;;7.63;5.40;;;;;;;10.75;100.00;101070.33;1836498;78;26352;-75
2021/04/29 09:08:13;;;;;;;5.10;4.60;;;;;;;10.68;100.00;101069.80;1836125;77;26217;-79
2021/04/29 09:10:44;;;;;;;4.60;3.93;;;;;;;10.75;100.00;101066.16;1836668;78;26342;-78
2021/04/29 09:13:17;;;;;;;5.67;4.13;;;;;;;10.85;100.00;101066.70;1836618;78;26216;-78
2021/04/29 09:15:48;;;;;;;5.10;3.93;;;;;;;10.60;100.00;101072.31;1836476;78;26276;-76
2021/04/29 09:18:21;;;;;;;4.83;4.10;;;;;;;10.48;100.00;101076.78;1836393;78;26221;-76
2021/04/29 09:20:54;;;;;;;6.43;4.37;;;;;;;10.32;100.00;101073.16;1836616;78;26279;-76
2021/04/29 09:23:25;;;;;;;5.73;4.50;;;;;;;10.40;100.00;101083.70;1836486;78;26618;-75
2021/04/29 09:25:57;;;;;;;4.17;3.73;;;;;;;10.33;100.00;101085.94;1836467;78;26651;-75
2021/04/29 09:28:42;;;;;;;5.63;4.10;;;;;;;10.68;100.00;101075.91;1836554;78;26310;-75
2021/04/29 09:31:14;;;;;;;6.67;4.13;;;;;;;11.19;100.00;101076.59;1836355;78;26644;-74
2021/04/29 09:33:46;;;;;;;4.80;3.83;;;;;;;10.94;100.00;101078.35;1836397;77;26327;-76
2021/04/29 09:36:24;;;;;;;4.60;3.63;;;;;;;11.00;100.00;101079.70;1836505;78;26303;-76
2021/04/29 09:38:56;;;;;;;5.63;3.37;;;;;;;10.94;100.00;101075.58;1836528;78;26683;-77
2021/04/29 09:41:28;;;;;;;4.33;3.00;;;;;;;11.40;100.00;101085.96;1836598;78;26302;-75
2021/04/29 09:44:00;;;;;;;3.97;3.07;;;;;;;11.62;100.00;101081.41;1836578;78;26305;-75
2021/04/29 09:46:41;;;;;;;3.43;2.80;;;;;;;11.25;100.00;101085.20;1836545;78;26726;-75
2021/04/29 09:49:19;;;;;;;3.30;2.63;;;;;;;10.89;100.00;101091.42;1836499;78;26214;-76
2021/04/29 09:51:49;;;;;;;3.53;3.23;;;;;;;10.81;100.00;101094.77;1836330;78;26256;-75
2021/04/29 09:54:28;;;;;;;2.90;2.67;;;;;;;10.71;100.00;101095.62;1836464;78;26205;-77
2021/04/29 09:57:00;;;;;;;4.23;3.43;;;;;;;10.49;100.00;101100.63;1836421;78;26253;-78
2021/04/29 09:59:31;;;;;;;4.50;2.70;;;;;;;10.62;100.00;101094.52;1836497;78;26218;-78
2021/04/29 10:02:02;;;;;;;3.60;3.30;;;;;;;10.58;100.00;101105.08;1836412;78;26652;-78
2021/04/29 10:04:33;;;;;;;3.77;2.90;;;;;;;10.63;100.00;101100.91;1836339;78;26675;-78
2021/04/29 10:07:03;;;;;;;3.77;3.03;;;;;;;10.70;100.00;101104.22;1836556;78;26287;-78
2021/04/29 10:09:34;;;;;;;3.20;2.90;;;;;;;10.76;100.00;101102.56;1836459;78;26212;-77
2021/04/29 10:12:07;;;;;;;4.10;3.10;;;;;;;10.82;100.00;101095.06;1836422;78;26306;-77
2021/04/29 10:14:39;;;;;;;4.90;3.53;;;;;;;10.93;100.00;101092.52;1836553;78;26216;-75
2021/04/29 10:17:10;;;;;;;4.67;3.07;;;;;;;11.01;100.00;101098.89;1836535;78;26212;-76
2021/04/29 10:19:44;;;;;;;3.93;3.30;;;;;;;11.02;100.00;101099.72;1836410;78;26706;-76
2021/04/29 10:22:15;;;;;;;3.23;3.00;;;;;;;11.21;100.00;101098.02;1836458;78;26220;-76
2021/04/29 10:24:47;;;;;;;6.30;4.57;;;;;;;11.17;100.00;101099.11;1836629;78;26274;-80
2021/04/29 10:27:20;;;;;;;7.40;4.87;;;;;;;11.19;100.00;101105.23;1836526;78;26227;-74
2021/04/29 10:29:51;;;;;;;5.33;3.77;;;;;;;11.09;100.00;101100.25;1836957;78;26208;-74
2021/04/29 10:32:23;;;;;;;3.83;2.80;;;;;;;11.14;100.00;101098.84;1835333;78;26709;-72
2021/04/29 10:34:53;;;;;;;3.50;3.17;;;;;;;11.22;100.00;101096.31;1836738;77;26699;-73
2021/04/29 10:37:27;;;;;;;3.23;2.80;;;;;;;11.42;100.00;101097.63;1836584;78;26212;-77
2021/04/29 10:39:59;;;;;;;3.07;2.40;;;;;;;11.73;100.00;101097.50;1836661;78;26217;-72
2021/04/29 10:42:31;;;;;;;3.30;2.10;;;;;;;11.71;100.00;101093.60;1836420;78;26792;-76
2021/04/29 10:45:08;;;;;;;2.17;1.70;;;;;;;11.58;100.00;101094.23;1836458;78;26277;-75
2021/04/29 10:47:39;;;;;;;2.30;1.70;;;;;;;11.28;100.00;101104.09;1820712;79;26300;-76
2021/04/29 10:50:11;;;;;;;2.10;1.90;;;;;;;11.04;100.00;101105.85;1831250;78;26353;-76
2021/04/29 10:52:49;;;;;;;2.70;2.30;;;;;;;11.04;100.00;101112.80;1804872;79;26760;-75
2021/04/29 10:55:28;;;;;;;2.97;2.10;;;;;;;10.83;100.00;101113.38;1836416;78;26256;-75
2021/04/29 10:58:00;;;;;;;3.47;2.10;;;;;;;10.84;100.00;101110.32;1836524;78;26286;-76
2021/04/29 11:00:31;;;;;;;2.47;2.10;;;;;;;10.73;100.00;101117.58;1836496;78;26686;-75
2021/04/29 11:03:03;;;;;;;2.47;2.27;;;;;;;10.64;100.00;101132.58;1836408;78;26248;-75
2021/04/29 11:05:35;;;;;;;6.27;2.60;;;;;;;10.66;100.00;101127.56;1836415;78;26729;-74
2021/04/29 11:08:08;;;;;;;4.33;2.60;;;;;;;10.63;100.00;101130.08;1836411;78;26224;-74
2021/04/29 11:10:40;;;;;;;4.07;2.47;;;;;;;10.72;100.00;101132.02;1836519;78;26263;-74
2021/04/29 11:13:13;;;;;;;2.43;2.17;;;;;;;10.61;100.00;101129.53;1836878;78;26229;-75
2021/04/29 11:15:46;;;;;;;3.53;2.17;;;;;;;10.72;100.00;101134.80;1835958;78;26253;-74
2021/04/29 11:18:19;;;;;;;3.17;2.23;;;;;;;10.87;100.00;101134.77;1804121;79;26703;-75
2021/04/29 11:20:50;;;;;;;2.60;2.00;;;;;;;10.84;100.00;101131.72;1836554;78;26338;-75
2021/04/29 11:23:26;;;;;;;3.03;2.10;;;;;;;10.87;100.00;101135.31;1836545;78;26232;-75
2021/04/29 11:26:05;;;;;;;1.90;1.67;;;;;;;10.86;100.00;101138.69;1836152;78;26699;-75
2021/04/29 11:28:35;;;;;;;3.03;2.13;;;;;;;10.86;100.00;101137.30;1804859;79;26298;-74
2021/04/29 11:31:06;;;;;;;2.40;2.20;;;;;;;10.84;100.00;101137.28;1836375;78;26272;-74
2021/04/29 11:33:38;;;;;;;3.07;2.47;;;;;;;10.86;100.00;101141.46;1836378;77;26228;-75
2021/04/29 11:36:17;;;;;;;2.67;2.47;;;;;;;10.90;100.00;101138.95;1836431;78;26293;-74
2021/04/29 11:38:53;;;;;;;2.23;2.00;;;;;;;10.89;100.00;101140.89;1836457;78;26228;-74